Time;durP1;ratioP1;P1;durP2;ratioP2;P2;SDS_P1;SDS_P2;PMS_P1;PMS_P2;Temp;Humidity;BMP_temperature;BMP_pressure;BME280_temperature;BME280_humidity;BME280_pressure;Samples;Min_cycle;Max_cycle;Signal;HPM_P1;HPM_P2
2021/01/19 00:00:26;;;;;;;4.45;2.42;;;-1.80;98.00;;;;;;5081715;28;20024;-66
2021/01/19 00:02:51;;;;;;;4.20;2.33;;;-1.60;98.00;;;;;;5088990;28;20032;-67
2021/01/19 00:05:17;;;;;;;5.47;2.35;;;-1.40;98.00;;;;;;5090540;28;20035;-67
2021/01/19 00:07:43;;;;;;;3.75;2.20;;;-1.30;98.00;;;;;;5076295;28;20032;-67
2021/01/19 00:10:09;;;;;;;2.72;1.90;;;-1.30;98.00;;;;;;5081314;28;20047;-67
2021/01/19 00:12:35;;;;;;;3.30;2.05;;;-1.40;98.00;;;;;;5085457;28;20025;-67
2021/01/19 00:15:00;;;;;;;3.63;2.30;;;-1.40;98.00;;;;;;5079100;28;20039;-67
2021/01/19 00:17:29;;;;;;;4.25;2.28;;;-1.30;98.00;;;;;;5085312;28;20028;-66
2021/01/19 00:19:54;;;;;;;8.73;3.53;;;-1.30;98.00;;;;;;5088356;28;20055;-66
2021/01/19 00:22:20;;;;;;;5.70;2.15;;;-1.40;98.00;;;;;;5083373;28;20033;-66
2021/01/19 00:24:46;;;;;;;17.00;2.63;;;-1.20;97.60;;;;;;5078965;28;20051;-67
2021/01/19 00:27:12;;;;;;;5.32;2.60;;;-1.10;97.10;;;;;;5084542;28;20123;-65
2021/01/19 00:29:39;;;;;;;4.90;2.10;;;-1.20;96.90;;;;;;5087549;28;20111;-66
2021/01/19 00:32:05;;;;;;;6.85;2.53;;;-1.30;97.20;;;;;;5091404;28;20111;-65
2021/01/19 00:34:30;;;;;;;3.35;2.28;;;-1.40;97.20;;;;;;5080554;28;20040;-66
2021/01/19 00:36:56;;;;;;;3.85;2.03;;;-1.40;97.20;;;;;;5087018;28;20031;-66
2021/01/19 00:39:22;;;;;;;3.97;1.77;;;-1.10;97.00;;;;;;5082513;28;20462;-66
2021/01/19 00:41:47;;;;;;;4.22;1.70;;;-1.00;96.30;;;;;;5094716;28;20032;-67
2021/01/19 00:44:15;;;;;;;4.43;1.98;;;-1.20;96.40;;;;;;5096446;28;20067;-67
2021/01/19 00:46:41;;;;;;;2.78;1.90;;;-1.20;96.70;;;;;;5081140;28;20509;-66
2021/01/19 00:49:06;;;;;;;5.22;2.15;;;-1.10;96.40;;;;;;5084728;28;20032;-67
2021/01/19 00:51:34;;;;;;;4.03;2.17;;;-1.10;96.30;;;;;;5091065;28;20028;-67
2021/01/19 00:53:59;;;;;;;4.10;2.45;;;-1.30;96.60;;;;;;5079040;28;20059;-66
2021/01/19 00:56:25;;;;;;;3.80;2.20;;;-1.40;96.90;;;;;;5085848;28;20079;-66
2021/01/19 00:58:51;;;;;;;3.08;2.05;;;-1.40;97.10;;;;;;5079952;28;20032;-65
2021/01/19 01:01:16;;;;;;;3.28;2.00;;;-1.50;97.40;;;;;;5084912;28;20027;-66
2021/01/19 01:03:44;;;;;;;3.95;2.15;;;-1.30;97.10;;;;;;5085778;28;20035;-67
2021/01/19 01:06:14;;;;;;;4.53;1.83;;;-1.30;96.60;;;;;;5090838;28;20028;-67
2021/01/19 01:08:40;;;;;;;5.65;2.40;;;-1.20;96.50;;;;;;5082916;28;20368;-67
2021/01/19 01:11:05;;;;;;;2.88;1.80;;;-1.20;96.10;;;;;;5086930;28;20031;-66
2021/01/19 01:13:31;;;;;;;3.63;2.17;;;-1.30;96.10;;;;;;5077747;28;20036;-66
2021/01/19 01:15:56;;;;;;;5.55;2.55;;;-1.50;96.80;;;;;;5087460;28;20032;-66
2021/01/19 01:18:22;;;;;;;5.15;2.40;;;-1.60;97.20;;;;;;5078195;28;20036;-65
2021/01/19 01:20:48;;;;;;;4.45;2.38;;;-1.80;97.30;;;;;;5077260;28;20032;-66
2021/01/19 01:23:14;;;;;;;4.28;2.20;;;-1.80;97.60;;;;;;5084258;28;20043;-65
2021/01/19 01:25:41;;;;;;;4.90;2.10;;;-1.90;98.00;;;;;;5083629;28;20421;-67
2021/01/19 01:28:09;;;;;;;4.70;2.40;;;-2.00;98.00;;;;;;5077759;28;20025;-67
2021/01/19 01:30:35;;;;;;;4.50;2.45;;;-2.10;98.00;;;;;;5083506;28;20112;-67
2021/01/19 01:33:01;;;;;;;5.65;2.60;;;-2.20;98.00;;;;;;5089995;28;20456;-66
2021/01/19 01:35:26;;;;;;;5.43;2.40;;;-2.30;98.00;;;;;;5088326;28;20099;-67
2021/01/19 01:37:54;;;;;;;4.07;2.30;;;-2.30;98.00;;;;;;5087560;28;20047;-67
2021/01/19 01:40:24;;;;;;;4.43;2.15;;;-2.20;98.00;;;;;;5087647;28;20056;-68
2021/01/19 01:42:51;;;;;;;5.05;2.80;;;-2.40;98.00;;;;;;5085322;28;20031;-67
2021/01/19 01:45:25;;;;;;;5.57;2.53;;;-2.60;98.00;;;;;;5091074;28;20020;-66
2021/01/19 01:47:53;;;;;;;4.30;2.42;;;-2.60;98.00;;;;;;5089189;28;20076;-67
2021/01/19 01:50:19;;;;;;;3.65;2.42;;;-2.80;98.00;;;;;;5082142;28;20036;-66
2021/01/19 01:52:46;;;;;;;4.32;2.47;;;-3.10;98.00;;;;;;5079552;28;20032;-67
2021/01/19 01:55:15;;;;;;;3.72;2.28;;;-3.10;98.00;;;;;;5075436;28;20052;-67
2021/01/19 01:57:41;;;;;;;4.00;2.15;;;-3.20;98.00;;;;;;5077111;28;20112;-66
2021/01/19 02:00:08;;;;;;;4.85;2.88;;;-3.30;98.00;;;;;;5081144;28;20198;-66
2021/01/19 02:02:34;;;;;;;3.58;2.33;;;-3.30;98.00;;;;;;5076537;28;20127;-65
2021/01/19 02:05:03;;;;;;;5.30;2.72;;;-3.20;98.00;;;;;;5078819;28;20056;-66
2021/01/19 02:07:46;;;;;;;5.13;2.80;;;-3.00;98.00;;;;;;5074984;28;20064;-66
2021/01/19 02:10:43;;;;;;;6.88;3.05;;;-2.80;98.00;;;;;;5080409;28;20036;-67
2021/01/19 02:13:49;;;;;;;4.22;2.55;;;-2.50;98.00;;;;;;5082060;28;20086;-67
2021/01/19 02:16:44;;;;;;;5.55;2.85;;;-2.40;98.00;;;;;;5075979;28;20117;-66
2021/01/19 02:19:19;;;;;;;4.18;2.42;;;-2.70;98.00;;;;;;5078078;28;20094;-67
2021/01/19 02:22:06;;;;;;;5.90;2.42;;;-2.80;98.00;;;;;;5087440;28;20040;-67
2021/01/19 02:24:42;;;;;;;4.90;2.38;;;-2.90;98.00;;;;;;5086639;28;20084;-67
2021/01/19 02:27:42;;;;;;;5.32;2.22;;;-2.80;98.00;;;;;;5083116;28;20024;-68
2021/01/19 02:30:11;;;;;;;3.80;2.28;;;-2.80;98.00;;;;;;5091832;28;20452;-67
2021/01/19 02:32:44;;;;;;;4.60;2.25;;;-2.50;98.00;;;;;;5086163;28;20036;-67
2021/01/19 02:35:19;;;;;;;3.78;2.20;;;-2.50;98.00;;;;;;5077166;28;20085;-67
2021/01/19 02:38:15;;;;;;;6.07;2.40;;;-2.60;98.00;;;;;;5078192;28;20784;-67
2021/01/19 02:40:42;;;;;;;4.50;2.70;;;-2.70;98.00;;;;;;5088339;28;20048;-66
2021/01/19 02:43:11;;;;;;;3.15;2.13;;;-2.60;98.00;;;;;;5087635;28;20325;-68
2021/01/19 02:45:38;;;;;;;6.45;2.40;;;-2.70;98.00;;;;;;5077520;28;20032;-66
2021/01/19 02:48:04;;;;;;;4.15;2.50;;;-3.00;98.00;;;;;;5079414;28;20023;-66
2021/01/19 02:50:31;;;;;;;4.28;2.50;;;-3.10;98.00;;;;;;5084747;28;20024;-66
2021/01/19 02:52:58;;;;;;;4.28;2.30;;;-3.20;98.00;;;;;;5089311;28;20417;-67
2021/01/19 02:55:25;;;;;;;5.95;2.90;;;-3.10;98.00;;;;;;5079422;28;20111;-68
2021/01/19 02:58:21;;;;;;;5.95;3.10;;;-3.30;98.00;;;;;;5080995;28;20032;-67
2021/01/19 03:01:07;;;;;;;4.65;2.70;;;-3.20;98.00;;;;;;5084161;28;20033;-65
2021/01/19 03:03:40;;;;;;;5.05;3.08;;;-3.10;98.00;;;;;;5089415;28;20421;-66
2021/01/19 03:06:18;;;;;;;7.68;2.63;;;-3.00;98.00;;;;;;5088015;28;20058;-68
2021/01/19 03:08:45;;;;;;;11.75;2.97;;;-2.80;98.00;;;;;;5084629;28;20031;-67
2021/01/19 03:11:14;;;;;;;5.18;2.83;;;-2.70;98.00;;;;;;5075566;28;20120;-65
2021/01/19 03:13:43;;;;;;;5.82;2.97;;;-2.60;98.00;;;;;;5077917;28;20028;-67
2021/01/19 03:16:11;;;;;;;4.80;2.80;;;-2.70;98.00;;;;;;5086391;28;20054;-67
2021/01/19 03:18:39;;;;;;;5.00;2.97;;;-2.60;98.00;;;;;;5089347;28;20078;-67
2021/01/19 03:21:06;;;;;;;4.72;3.00;;;-2.60;98.00;;;;;;5083163;28;20069;-65
2021/01/19 03:23:33;;;;;;;9.18;2.67;;;-2.70;98.00;;;;;;5093787;28;20111;-67
2021/01/19 03:25:59;;;;;;;4.38;2.63;;;-2.60;98.00;;;;;;5087940;28;20084;-67
2021/01/19 03:28:25;;;;;;;4.95;3.03;;;-2.50;98.00;;;;;;5083619;28;20043;-65
2021/01/19 03:30:51;;;;;;;5.30;2.72;;;-2.60;98.00;;;;;;5085811;28;20027;-67
2021/01/19 03:33:17;;;;;;;5.28;2.90;;;-2.40;98.00;;;;;;5090971;28;20402;-66
2021/01/19 03:35:45;;;;;;;5.25;2.60;;;-2.50;98.00;;;;;;5087672;28;20108;-65
2021/01/19 03:38:11;;;;;;;4.22;2.50;;;-2.60;98.00;;;;;;5090663;28;20383;-67
2021/01/19 03:40:37;;;;;;;5.32;2.53;;;-2.50;98.00;;;;;;5081932;28;20135;-66
2021/01/19 03:43:03;;;;;;;4.10;2.47;;;-2.40;98.00;;;;;;5087791;28;20017;-67
2021/01/19 03:45:29;;;;;;;5.45;2.65;;;-2.50;98.00;;;;;;5089200;28;20033;-65
2021/01/19 03:47:56;;;;;;;4.75;2.53;;;-2.40;98.00;;;;;;5085838;28;20024;-65
2021/01/19 03:50:21;;;;;;;5.85;2.78;;;-2.50;98.00;;;;;;5087515;28;20076;-66
2021/01/19 03:52:47;;;;;;;5.00;2.58;;;-2.70;98.00;;;;;;5083729;28;20844;-67
2021/01/19 03:55:13;;;;;;;6.00;2.63;;;-2.60;98.00;;;;;;5080735;28;20028;-66
2021/01/19 03:57:38;;;;;;;3.38;2.20;;;-2.50;98.00;;;;;;5086819;28;20032;-67
2021/01/19 04:00:07;;;;;;;5.97;2.95;;;-2.50;98.00;;;;;;5084384;28;20101;-67
2021/01/19 04:02:32;;;;;;;3.35;2.30;;;-2.60;98.00;;;;;;5081737;28;20341;-67
2021/01/19 04:04:58;;;;;;;4.75;2.75;;;-2.70;98.00;;;;;;5077316;28;20041;-66
2021/01/19 04:07:25;;;;;;;4.35;2.42;;;-2.80;98.00;;;;;;5082779;28;20067;-67
2021/01/19 04:09:51;;;;;;;6.00;2.30;;;-2.50;98.00;;;;;;5078054;28;20047;-67
2021/01/19 04:12:17;;;;;;;7.38;2.80;;;-2.40;98.00;;;;;;5079377;28;20036;-67
2021/01/19 04:14:45;;;;;;;3.70;2.40;;;-2.20;98.00;;;;;;5080124;28;21592;-67
2021/01/19 04:17:11;;;;;;;4.93;2.55;;;-2.20;97.70;;;;;;5084177;28;20321;-67
2021/01/19 04:19:36;;;;;;;5.40;2.75;;;-2.40;97.80;;;;;;5084775;28;20044;-66
2021/01/19 04:22:02;;;;;;;4.88;2.83;;;-2.30;98.00;;;;;;5079923;28;20529;-66
2021/01/19 04:24:27;;;;;;;4.55;2.40;;;-2.30;98.00;;;;;;5074510;28;20103;-67
2021/01/19 04:26:53;;;;;;;3.03;2.17;;;-2.20;97.70;;;;;;5082542;28;20028;-67
2021/01/19 04:29:19;;;;;;;7.50;3.58;;;-2.20;97.60;;;;;;5077569;28;20100;-66
2021/01/19 04:31:45;;;;;;;5.63;2.40;;;-2.20;97.80;;;;;;5079894;28;20344;-65
2021/01/19 04:34:10;;;;;;;3.70;2.30;;;-2.10;97.60;;;;;;5081081;28;20032;-66
2021/01/19 04:36:36;;;;;;;5.25;2.40;;;-2.10;97.80;;;;;;5087054;28;20060;-65
2021/01/19 04:39:02;;;;;;;5.45;2.42;;;-2.10;97.70;;;;;;5083797;28;20302;-66
2021/01/19 04:41:28;;;;;;;4.43;2.45;;;-1.90;97.50;;;;;;5084644;28;20016;-66
2021/01/19 04:43:57;;;;;;;4.20;2.50;;;-1.90;97.30;;;;;;5081857;28;20027;-67
2021/01/19 04:46:25;;;;;;;5.25;3.05;;;-1.90;97.00;;;;;;5080846;28;20024;-66
2021/01/19 04:48:53;;;;;;;4.03;2.97;;;-1.80;97.10;;;;;;5085387;28;20036;-67
2021/01/19 04:51:23;;;;;;;9.32;3.55;;;-1.90;97.30;;;;;;5080400;28;20070;-65
2021/01/19 04:54:00;;;;;;;3.80;2.15;;;-1.90;97.40;;;;;;5084115;28;20020;-66
2021/01/19 04:56:33;;;;;;;5.97;3.00;;;-2.00;97.70;;;;;;5090299;28;20086;-68
2021/01/19 04:58:58;;;;;;;3.90;2.60;;;-2.20;97.60;;;;;;5083950;28;20034;-65
2021/01/19 05:02:31;;;;;;;3.88;2.50;;;-2.20;97.90;;;;;;5086631;28;20020;-65
2021/01/19 05:05:22;;;;;;;4.35;2.40;;;-2.30;98.00;;;;;;5038733;28;20081;-67
2021/01/19 05:08:14;;;;;;;4.38;2.40;;;-2.20;98.00;;;;;;5079500;28;20024;-67
2021/01/19 05:10:41;;;;;;;4.38;2.47;;;-2.10;98.00;;;;;;5084987;28;20044;-66
2021/01/19 05:13:11;;;;;;;4.65;2.30;;;-2.00;97.90;;;;;;5081108;28;20028;-67
2021/01/19 05:15:44;;;;;;;3.67;2.20;;;-1.90;97.60;;;;;;5082553;28;20032;-67
2021/01/19 05:18:11;;;;;;;8.05;2.70;;;-1.90;96.90;;;;;;5078472;28;20032;-67
2021/01/19 05:20:45;;;;;;;3.63;2.50;;;-1.90;96.60;;;;;;5060112;28;639568;-67
2021/01/19 05:23:22;;;;;;;4.47;2.30;;;-2.00;97.00;;;;;;5077914;28;20024;-67
2021/01/19 05:25:54;;;;;;;4.05;2.50;;;-1.90;96.60;;;;;;5078900;28;20090;-67
2021/01/19 05:28:48;;;;;;;5.68;2.60;;;-2.10;96.60;;;;;;5084288;28;20032;-67
2021/01/19 05:31:21;;;;;;;9.07;3.60;;;-2.20;97.10;;;;;;5077454;28;20032;-66
2021/01/19 05:33:52;;;;;;;5.77;3.23;;;-2.20;97.50;;;;;;5076573;28;20025;-66
2021/01/19 05:36:22;;;;;;;6.07;2.78;;;-2.30;97.60;;;;;;5081077;28;20028;-67
2021/01/19 05:38:53;;;;;;;4.57;2.80;;;-2.40;97.50;;;;;;5076928;28;20020;-65
2021/01/19 05:41:32;;;;;;;8.10;4.07;;;-2.40;98.00;;;;;;5084416;28;20329;-67
2021/01/19 05:44:20;;;;;;;5.07;3.33;;;-2.40;98.00;;;;;;5089003;28;20040;-65
2021/01/19 05:46:50;;;;;;;9.50;4.40;;;-2.50;98.00;;;;;;5081261;28;20073;-67
2021/01/19 05:49:20;;;;;;;7.05;3.83;;;-2.60;98.00;;;;;;5081078;28;20082;-66
2021/01/19 05:51:48;;;;;;;7.75;4.47;;;-2.70;98.00;;;;;;5080492;28;20035;-65
2021/01/19 05:54:29;;;;;;;26.15;10.85;;;-2.70;98.00;;;;;;5079858;28;20104;-67
2021/01/19 05:57:22;;;;;;;10.27;4.88;;;-2.70;98.00;;;;;;5086993;28;20324;-67
2021/01/19 05:59:52;;;;;;;5.95;3.70;;;-2.60;98.00;;;;;;5077460;28;20016;-66
2021/01/19 06:02:20;;;;;;;4.53;2.78;;;-2.40;98.00;;;;;;5085751;28;20095;-67
2021/01/19 06:04:47;;;;;;;5.80;3.22;;;-2.40;98.00;;;;;;5086264;28;20086;-68
2021/01/19 06:07:15;;;;;;;5.22;3.67;;;-2.40;98.00;;;;;;5079481;28;20025;-67
2021/01/19 06:09:42;;;;;;;5.40;3.13;;;-2.30;98.00;;;;;;5081931;28;20028;-66
2021/01/19 06:12:09;;;;;;;5.18;3.17;;;-2.30;98.00;;;;;;5087710;28;20077;-67
2021/01/19 06:14:36;;;;;;;7.40;3.15;;;-2.30;98.00;;;;;;5090988;28;21686;-66
2021/01/19 06:17:06;;;;;;;8.85;3.10;;;-2.30;98.00;;;;;;5087930;28;20037;-67
2021/01/19 06:19:33;;;;;;;9.07;3.40;;;-2.20;98.00;;;;;;5077041;28;20044;-67
2021/01/19 06:22:04;;;;;;;5.50;2.95;;;-2.00;97.70;;;;;;5082648;28;20024;-68
2021/01/19 06:24:35;;;;;;;5.05;2.58;;;-1.90;96.90;;;;;;5076493;28;20085;-67
2021/01/19 06:27:02;;;;;;;5.35;2.75;;;-1.90;96.90;;;;;;5080808;28;20028;-67
2021/01/19 06:29:28;;;;;;;7.78;2.78;;;-1.90;96.30;;;;;;5093189;28;20048;-67
2021/01/19 06:32:05;;;;;;;3.97;2.67;;;-1.90;96.00;;;;;;5083064;28;20125;-65
2021/01/19 06:34:37;;;;;;;6.95;2.38;;;-1.90;95.80;;;;;;5087907;28;20035;-67
2021/01/19 06:37:04;;;;;;;5.53;2.90;;;-1.80;95.30;;;;;;5086511;28;20055;-67
2021/01/19 06:39:43;;;;;;;4.18;2.70;;;-1.80;95.20;;;;;;5080022;28;20039;-66
2021/01/19 06:42:16;;;;;;;6.25;2.47;;;-1.60;94.50;;;;;;5080963;28;20024;-68
2021/01/19 06:44:48;;;;;;;5.53;2.43;;;-1.60;94.50;;;;;;5083522;28;20035;-66
2021/01/19 06:47:19;;;;;;;5.38;2.63;;;-1.70;94.40;;;;;;5081904;28;20020;-67
2021/01/19 06:49:45;;;;;;;6.80;2.45;;;-1.80;94.60;;;;;;5083304;28;20090;-67
2021/01/19 06:52:14;;;;;;;4.75;2.60;;;-1.90;94.90;;;;;;5085940;28;20341;-67
2021/01/19 06:55:03;;;;;;;7.03;3.90;;;-1.90;95.20;;;;;;5085904;28;20078;-67
2021/01/19 06:57:30;;;;;;;4.95;3.05;;;-1.90;94.80;;;;;;5088194;28;20554;-66
2021/01/19 07:00:18;;;;;;;4.45;2.70;;;-2.00;94.90;;;;;;5082317;28;20019;-67
2021/01/19 07:02:44;;;;;;;5.05;2.63;;;-2.10;95.10;;;;;;5086208;28;20046;-67
2021/01/19 07:05:15;;;;;;;6.43;2.45;;;-2.10;95.10;;;;;;5075380;28;20029;-65
2021/01/19 07:07:43;;;;;;;5.35;2.90;;;-2.10;95.50;;;;;;5084833;28;20105;-67
2021/01/19 07:10:11;;;;;;;4.60;2.55;;;-2.20;95.60;;;;;;5081097;28;20028;-67
2021/01/19 07:12:55;;;;;;;4.20;2.60;;;-2.30;95.50;;;;;;5090347;28;20103;-66
2021/01/19 07:15:22;;;;;;;;;;;-2.00;94.30;;;;;;5083175;28;20032;-66
2021/01/19 07:18:14;;;;;;;4.43;2.50;;;-1.90;93.90;;;;;;5078034;28;19927;-66
2021/01/19 07:21:00;;;;;;;4.35;2.97;;;-1.90;93.80;;;;;;5083848;28;20440;-68
2021/01/19 07:23:51;;;;;;;4.10;2.53;;;-1.90;94.10;;;;;;5080562;28;20425;-68
2021/01/19 07:26:22;;;;;;;6.63;2.60;;;-2.00;94.50;;;;;;5080985;28;20112;-67
2021/01/19 07:28:50;;;;;;;5.05;2.70;;;-1.90;94.00;;;;;;5078917;28;20039;-66
2021/01/19 07:31:20;;;;;;;4.82;2.80;;;-1.90;93.90;;;;;;5081560;28;20117;-68
2021/01/19 07:33:51;;;;;;;7.50;4.20;;;-1.70;92.60;;;;;;5089895;28;20484;-68
2021/01/19 07:36:25;;;;;;;5.05;2.95;;;-1.70;92.90;;;;;;5076181;28;20028;-68
2021/01/19 07:38:51;;;;;;;5.03;2.47;;;-1.60;91.80;;;;;;5080617;28;20409;-66
2021/01/19 07:41:31;;;;;;;3.65;2.53;;;-1.60;91.50;;;;;;5081401;28;20412;-66
2021/01/19 07:43:57;;;;;;;3.97;2.70;;;-1.60;91.60;;;;;;5085771;28;20444;-67
2021/01/19 07:46:28;;;;;;;10.35;3.30;;;-1.30;90.30;;;;;;5080174;28;20032;-67
2021/01/19 07:49:04;;;;;;;4.88;2.75;;;-1.20;90.10;;;;;;5086590;28;20033;-67
2021/01/19 07:51:44;;;;;;;5.07;2.90;;;-1.20;90.50;;;;;;5079421;28;20032;-68
2021/01/19 07:54:12;;;;;;;7.05;3.00;;;-1.20;90.60;;;;;;5077717;28;20043;-68
2021/01/19 07:56:39;;;;;;;9.98;5.47;;;-1.20;90.70;;;;;;5087893;28;20332;-67
2021/01/19 07:59:18;;;;;;;6.32;3.67;;;-1.10;91.10;;;;;;5080280;28;20098;-68
2021/01/19 08:02:02;;;;;;;8.10;3.80;;;-1.10;90.90;;;;;;5082942;28;20050;-69
2021/01/19 08:04:36;;;;;;;6.13;3.70;;;-0.90;91.20;;;;;;5080375;28;20032;-69
2021/01/19 08:07:11;;;;;;;;;;;-0.90;90.30;;;;;;5086641;28;20115;-67
2021/01/19 08:09:37;;;;;;;14.07;6.72;;;-0.80;90.40;;;;;;5081849;28;19962;-68
2021/01/19 08:12:07;;;;;;;13.85;7.03;;;-0.90;90.50;;;;;;5088670;28;20035;-69
2021/01/19 08:14:39;;;;;;;20.45;10.75;;;-1.00;90.30;;;;;;5082006;28;20029;-67
2021/01/19 08:17:06;;;;;;;13.43;6.50;;;-1.00;90.30;;;;;;5083069;28;20073;-69
2021/01/19 08:19:43;;;;;;;8.60;5.25;;;-0.90;90.70;;;;;;5078846;28;20048;-67
2021/01/19 08:22:22;;;;;;;11.43;6.20;;;-0.90;90.50;;;;;;5084918;28;20062;-68
2021/01/19 08:24:59;;;;;;;9.13;5.60;;;-0.80;91.00;;;;;;5092324;28;20016;-68
2021/01/19 08:27:29;;;;;;;10.98;6.40;;;-0.60;90.40;;;;;;5093341;28;20028;-69
2021/01/19 08:29:54;;;;;;;11.07;5.05;;;-0.40;89.60;;;;;;5089084;28;20016;-69
2021/01/19 08:32:21;;;;;;;6.72;4.55;;;-0.50;89.40;;;;;;5084307;28;20298;-69
2021/01/19 08:34:47;;;;;;;4.28;3.20;;;-0.40;89.80;;;;;;5086068;28;20085;-69
2021/01/19 08:37:17;;;;;;;5.43;3.03;;;-0.30;90.30;;;;;;5080338;28;20062;-69
2021/01/19 08:39:53;;;;;;;6.35;2.88;;;-0.40;91.30;;;;;;5082510;28;20035;-68
2021/01/19 08:42:20;;;;;;;6.25;3.30;;;0.50;90.20;;;;;;5094468;28;20111;-67
2021/01/19 08:44:56;;;;;;;4.47;2.83;;;1.20;86.90;;;;;;5079617;28;20050;-69
2021/01/19 08:47:22;;;;;;;9.10;3.80;;;2.50;83.40;;;;;;5087832;28;20028;-69
2021/01/19 08:49:48;;;;;;;10.18;4.72;;;3.10;80.30;;;;;;5095315;28;20020;-69
2021/01/19 08:52:14;;;;;;;12.90;3.20;;;2.50;80.80;;;;;;5091196;28;20515;-70
2021/01/19 08:54:40;;;;;;;7.35;4.40;;;2.30;81.80;;;;;;5087283;28;20028;-66
2021/01/19 08:57:05;;;;;;;6.82;3.38;;;1.70;82.30;;;;;;5095515;28;20059;-67
2021/01/19 08:59:31;;;;;;;4.72;2.67;;;1.80;83.50;;;;;;5095594;28;20530;-67
2021/01/19 09:01:56;;;;;;;6.20;2.97;;;1.70;83.40;;;;;;5082827;28;20033;-68
2021/01/19 09:04:29;;;;;;;23.20;12.27;;;1.90;83.20;;;;;;5087702;28;20027;-69
2021/01/19 09:07:11;;;;;;;16.13;9.15;;;1.70;83.20;;;;;;5088959;28;20038;-69
2021/01/19 09:09:37;;;;;;;14.98;8.55;;;1.70;83.70;;;;;;5077510;28;20036;-69
2021/01/19 09:12:16;;;;;;;13.32;7.85;;;1.90;84.20;;;;;;5076566;28;20020;-69
2021/01/19 09:14:42;;;;;;;5.38;3.35;;;2.30;83.60;;;;;;5084260;28;20051;-69
2021/01/19 09:17:08;;;;;;;3.90;2.22;;;2.40;82.70;;;;;;5088348;28;20320;-68
2021/01/19 09:19:33;;;;;;;13.32;9.45;;;2.40;81.90;;;;;;5083023;28;20136;-69
2021/01/19 09:21:59;;;;;;;11.48;7.68;;;2.50;82.20;;;;;;5090332;28;20467;-68
2021/01/19 09:24:25;;;;;;;13.57;7.00;;;2.30;82.60;;;;;;5088916;28;20062;-69
2021/01/19 09:27:00;;;;;;;10.27;6.50;;;2.00;84.10;;;;;;5091068;28;20020;-69
2021/01/19 09:29:32;;;;;;;10.85;6.22;;;1.90;84.90;;;;;;5076515;28;20444;-68
2021/01/19 09:32:03;;;;;;;10.30;6.35;;;1.90;84.20;;;;;;5078283;28;20044;-69
2021/01/19 09:34:31;;;;;;;14.75;8.18;;;1.70;85.00;;;;;;5083365;28;20374;-69
2021/01/19 09:36:57;;;;;;;10.45;6.72;;;1.50;85.70;;;;;;5084397;28;20112;-68
2021/01/19 09:39:26;;;;;;;9.82;5.55;;;1.50;86.50;;;;;;5089517;28;20035;-69
2021/01/19 09:41:53;;;;;;;11.10;6.40;;;1.50;85.80;;;;;;5078467;28;20031;-70
2021/01/19 09:44:19;;;;;;;7.15;4.88;;;1.40;86.30;;;;;;5078135;28;20324;-69
2021/01/19 09:46:52;;;;;;;8.45;5.60;;;1.50;86.50;;;;;;5081554;28;20031;-69
2021/01/19 09:49:19;;;;;;;10.82;5.32;;;1.60;86.10;;;;;;5075962;28;20024;-69
2021/01/19 09:51:45;;;;;;;4.90;2.95;;;1.80;86.30;;;;;;5081924;28;20035;-68
2021/01/19 09:54:10;;;;;;;9.75;7.13;;;1.90;85.00;;;;;;5091964;28;20409;-68
2021/01/19 09:56:36;;;;;;;8.10;5.45;;;1.50;86.40;;;;;;5092333;28;20043;-68
2021/01/19 09:59:06;;;;;;;9.48;4.85;;;1.60;87.10;;;;;;5083802;28;20028;-68
2021/01/19 10:01:33;;;;;;;17.02;11.05;;;1.70;86.20;;;;;;5091553;28;20031;-69
2021/01/19 10:03:58;;;;;;;23.92;15.45;;;1.70;86.50;;;;;;5092997;28;20020;-68
2021/01/19 10:06:25;;;;;;;8.88;5.80;;;2.00;84.50;;;;;;5092655;28;20446;-68
2021/01/19 10:08:54;;;;;;;9.27;5.60;;;2.30;83.60;;;;;;5082380;28;20033;-68
2021/01/19 10:11:34;;;;;;;5.45;3.30;;;2.30;84.30;;;;;;5077391;28;20036;-67
2021/01/19 10:14:14;;;;;;;5.60;3.08;;;2.50;82.50;;;;;;5086511;28;20126;-69
2021/01/19 10:16:49;;;;;;;4.57;2.63;;;2.80;80.20;;;;;;5083493;28;20024;-68
2021/01/19 10:19:31;;;;;;;11.63;8.07;;;3.20;79.30;;;;;;5085823;28;20024;-69
2021/01/19 10:22:02;;;;;;;13.30;7.65;;;3.20;81.30;;;;;;5084354;28;20333;-68
2021/01/19 10:24:27;;;;;;;6.50;3.60;;;3.30;81.00;;;;;;5081376;28;20090;-68
2021/01/19 10:27:02;;;;;;;5.85;3.13;;;3.40;79.00;;;;;;5088255;28;20421;-67
2021/01/19 10:29:42;;;;;;;5.15;3.00;;;3.50;78.40;;;;;;5077452;28;20024;-68
2021/01/19 10:32:13;;;;;;;11.07;3.85;;;3.60;78.30;;;;;;5081948;28;20488;-68
2021/01/19 10:34:51;;;;;;;6.47;2.97;;;3.60;78.70;;;;;;5091256;28;20321;-67
2021/01/19 10:37:18;;;;;;;4.90;2.13;;;3.70;79.70;;;;;;5078358;28;20052;-69
2021/01/19 10:39:55;;;;;;;4.28;2.00;;;3.90;75.80;;;;;;5084758;28;20028;-68
2021/01/19 10:42:24;;;;;;;4.22;2.03;;;4.00;76.40;;;;;;5078416;28;20016;-69
2021/01/19 10:45:01;;;;;;;3.88;1.63;;;3.90;75.70;;;;;;5081942;28;20036;-67
2021/01/19 10:47:36;;;;;;;3.25;1.70;;;4.00;74.60;;;;;;5084233;28;20031;-67
2021/01/19 10:50:15;;;;;;;3.15;1.60;;;4.20;74.30;;;;;;5089993;28;20688;-68
2021/01/19 10:52:41;;;;;;;3.97;1.83;;;4.50;73.00;;;;;;5077490;28;20077;-69
2021/01/19 10:55:08;;;;;;;4.38;2.28;;;4.30;71.80;;;;;;5081194;28;20029;-69
2021/01/19 10:57:34;;;;;;;2.67;1.50;;;4.50;73.00;;;;;;5077378;28;20115;-67
2021/01/19 11:00:01;;;;;;;3.50;1.30;;;4.70;72.30;;;;;;5078430;28;20115;-68
2021/01/19 11:02:27;;;;;;;2.22;1.25;;;4.50;70.10;;;;;;5084560;28;20030;-67
2021/01/19 11:04:52;;;;;;;5.25;1.30;;;4.40;70.70;;;;;;5075873;28;20033;-69
2021/01/19 11:07:18;;;;;;;2.03;1.20;;;4.40;70.50;;;;;;5084234;28;20069;-69
2021/01/19 11:09:44;;;;;;;2.25;1.30;;;4.40;69.70;;;;;;5075846;28;20437;-69
2021/01/19 11:12:09;;;;;;;3.47;1.20;;;4.50;69.30;;;;;;5086313;28;20445;-69
2021/01/19 11:14:35;;;;;;;2.42;1.42;;;4.50;70.10;;;;;;5075136;28;20035;-69
2021/01/19 11:17:03;;;;;;;1.75;1.10;;;4.50;69.60;;;;;;5080713;28;20028;-70
2021/01/19 11:19:28;;;;;;;2.35;1.10;;;4.40;69.90;;;;;;5076522;28;20053;-68
2021/01/19 11:21:54;;;;;;;3.03;1.40;;;4.30;68.50;;;;;;5079465;28;20035;-68
2021/01/19 11:24:20;;;;;;;2.20;1.10;;;4.20;69.50;;;;;;5082090;28;20414;-67
2021/01/19 11:26:45;;;;;;;2.05;1.20;;;4.30;69.10;;;;;;5089789;28;20103;-70
2021/01/19 11:29:13;;;;;;;2.60;1.20;;;4.30;69.20;;;;;;5087271;28;20020;-68
2021/01/19 11:31:39;;;;;;;2.90;1.30;;;4.20;70.60;;;;;;5086752;28;20032;-68
2021/01/19 11:34:06;;;;;;;2.60;1.38;;;4.20;71.20;;;;;;5077248;28;20468;-69
2021/01/19 11:36:35;;;;;;;7.75;1.30;;;4.20;71.20;;;;;;5092152;28;20081;-68
2021/01/19 11:39:08;;;;;;;1.73;1.10;;;4.30;71.60;;;;;;5095791;28;20107;-69
2021/01/19 11:41:37;;;;;;;2.15;1.10;;;4.40;70.40;;;;;;5095966;28;20028;-70
2021/01/19 11:44:04;;;;;;;3.08;1.33;;;4.30;70.70;;;;;;5085964;28;20413;-67
2021/01/19 11:46:30;;;;;;;1.85;1.10;;;4.40;71.10;;;;;;5091982;28;20032;-68
2021/01/19 11:49:01;;;;;;;1.88;1.10;;;4.50;70.00;;;;;;5086407;28;20118;-67
2021/01/19 11:51:41;;;;;;;3.15;1.40;;;4.40;70.90;;;;;;5086208;28;20064;-67
2021/01/19 11:54:10;;;;;;;3.55;1.50;;;4.50;70.90;;;;;;5088829;28;20490;-68
2021/01/19 11:56:48;;;;;;;3.28;1.50;;;4.50;70.30;;;;;;5088958;28;20482;-68
2021/01/19 11:59:14;;;;;;;1.98;1.20;;;4.50;71.50;;;;;;5085462;28;20024;-70
2021/01/19 12:01:41;;;;;;;3.38;1.67;;;4.50;71.20;;;;;;5088153;28;20045;-69
2021/01/19 12:04:08;;;;;;;2.63;1.30;;;4.50;71.50;;;;;;5094779;28;20054;-70
2021/01/19 12:06:41;;;;;;;1.95;1.10;;;4.50;71.80;;;;;;5082674;28;20063;-70
2021/01/19 12:09:09;;;;;;;3.15;1.20;;;4.60;72.00;;;;;;5090495;28;20073;-69
2021/01/19 12:11:41;;;;;;;2.72;1.10;;;4.60;71.70;;;;;;5085218;28;20035;-68
2021/01/19 12:14:07;;;;;;;3.20;1.20;;;4.80;71.40;;;;;;5082962;28;20035;-69
2021/01/19 12:16:34;;;;;;;2.40;1.33;;;4.80;71.10;;;;;;5077799;28;20036;-68
2021/01/19 12:19:00;;;;;;;2.35;1.35;;;4.80;72.30;;;;;;5081388;28;20123;-69
2021/01/19 12:21:26;;;;;;;2.13;1.17;;;4.90;72.70;;;;;;5088746;28;20103;-68
2021/01/19 12:23:54;;;;;;;2.97;1.40;;;4.70;73.50;;;;;;5092179;28;20526;-70
2021/01/19 12:26:20;;;;;;;2.17;1.30;;;4.70;73.20;;;;;;5079794;28;20044;-68
2021/01/19 12:28:46;;;;;;;3.53;1.30;;;4.50;74.30;;;;;;5086505;28;20032;-69
2021/01/19 12:31:12;;;;;;;2.70;1.30;;;4.40;74.50;;;;;;5089197;28;20024;-69
2021/01/19 12:33:40;;;;;;;2.40;1.50;;;4.50;74.40;;;;;;5091693;28;20036;-69
2021/01/19 12:36:06;;;;;;;2.55;1.27;;;4.50;75.00;;;;;;5087271;28;20111;-69
2021/01/19 12:38:31;;;;;;;2.17;1.30;;;4.50;74.80;;;;;;5091852;28;20103;-69
2021/01/19 12:40:57;;;;;;;2.13;1.25;;;4.60;74.90;;;;;;5084550;28;20115;-71
2021/01/19 12:43:23;;;;;;;2.70;1.48;;;4.40;74.80;;;;;;5085417;28;20035;-68
2021/01/19 12:45:48;;;;;;;4.25;1.30;;;4.30;75.90;;;;;;5095436;28;20035;-68
2021/01/19 12:48:17;;;;;;;2.78;1.50;;;4.40;75.80;;;;;;5089756;28;20031;-69
2021/01/19 12:50:43;;;;;;;1.85;1.20;;;4.20;76.80;;;;;;5083939;28;20020;-67
2021/01/19 12:53:09;;;;;;;3.03;1.70;;;4.10;77.80;;;;;;5082119;28;20027;-68
2021/01/19 12:55:34;;;;;;;4.50;1.60;;;4.00;78.00;;;;;;5088719;28;20025;-69
2021/01/19 12:58:00;;;;;;;2.67;1.42;;;3.90;79.10;;;;;;5085293;28;20032;-69
2021/01/19 13:00:26;;;;;;;2.75;1.50;;;3.90;80.40;;;;;;5078980;28;20329;-69
2021/01/19 13:02:52;;;;;;;3.58;1.70;;;3.90;80.60;;;;;;5087464;28;20044;-68
2021/01/19 13:05:18;;;;;;;2.40;1.40;;;3.90;80.80;;;;;;5089366;28;20063;-68